Time;durP1;ratioP1;P1;durP2;ratioP2;P2;SDS_P1;SDS_P2;PMS_P1;PMS_P2;Temp;Humidity;BMP_temperature;BMP_pressure;BME280_temperature;BME280_humidity;BME280_pressure;Samples;Min_cycle;Max_cycle;Signal;HPM_P1;HPM_P2
2021/10/15 00:00:41;;;;;;;4.00;3.28;;;;;;;4.78;100.00;96268.94;5091962;28;24430;-76
2021/10/15 00:03:07;;;;;;;5.60;4.07;;;;;;;4.81;100.00;96270.53;5091658;28;24987;-76
2021/10/15 00:05:34;;;;;;;4.10;3.70;;;;;;;4.63;100.00;96266.81;5091465;28;24422;-76
2021/10/15 00:08:00;;;;;;;4.45;3.80;;;;;;;4.56;100.00;96258.50;5091888;28;24468;-76
2021/10/15 00:10:27;;;;;;;6.53;3.80;;;;;;;4.57;100.00;96262.75;5091690;28;24430;-76
2021/10/15 00:12:54;;;;;;;3.75;3.13;;;;;;;4.54;100.00;96255.13;5091448;28;24421;-76
2021/10/15 00:15:21;;;;;;;4.65;3.35;;;;;;;4.48;100.00;96260.44;5091392;28;24418;-76
2021/10/15 00:17:47;;;;;;;5.93;3.38;;;;;;;4.45;100.00;96255.44;5091496;28;24423;-76
2021/10/15 00:20:14;;;;;;;3.65;2.92;;;;;;;4.56;100.00;96255.94;5091489;28;24429;-76
2021/10/15 00:22:41;;;;;;;3.35;3.05;;;;;;;4.56;100.00;96248.25;5091719;28;24788;-76
2021/10/15 00:25:08;;;;;;;5.13;3.50;;;;;;;4.49;100.00;96258.75;5091123;28;24429;-76
2021/10/15 00:27:35;;;;;;;3.30;2.90;;;;;;;4.50;100.00;96256.13;5091101;28;24515;-75
2021/10/15 00:30:04;;;;;;;3.10;2.80;;;;;;;4.52;100.00;96256.91;5091726;28;24484;-76
2021/10/15 00:32:30;;;;;;;5.00;3.20;;;;;;;4.37;100.00;96252.25;5091276;28;24406;-76
2021/10/15 00:34:57;;;;;;;4.32;3.47;;;;;;;4.41;100.00;96242.72;5090808;28;24944;-76
2021/10/15 00:37:23;;;;;;;4.43;3.03;;;;;;;4.48;100.00;96236.53;5091092;28;24434;-75
2021/10/15 00:39:50;;;;;;;4.22;3.22;;;;;;;4.54;100.00;96239.75;5091070;28;24988;-76
2021/10/15 00:42:16;;;;;;;4.47;3.00;;;;;;;4.51;100.00;96239.00;5090886;28;24471;-76
2021/10/15 00:44:42;;;;;;;3.72;3.20;;;;;;;4.54;100.00;96229.47;5090874;28;24418;-76
2021/10/15 00:47:10;;;;;;;3.30;2.83;;;;;;;4.56;100.00;96235.41;5090976;28;24429;-75
2021/10/15 00:49:37;;;;;;;3.53;3.07;;;;;;;4.51;100.00;96234.69;5090816;28;24464;-76
2021/10/15 00:52:07;;;;;;;6.25;3.28;;;;;;;4.53;100.00;96225.25;5090794;28;24429;-76
2021/10/15 00:54:34;;;;;;;3.10;2.80;;;;;;;4.51;100.00;96215.91;5090507;28;24506;-76
2021/10/15 00:57:00;;;;;;;4.50;2.67;;;;;;;4.50;100.00;96216.81;5090902;28;24990;-76
2021/10/15 00:59:26;;;;;;;4.40;3.50;;;;;;;4.51;100.00;96214.19;5091418;28;24479;-76
2021/10/15 01:01:53;;;;;;;5.83;4.10;;;;;;;4.35;100.00;96218.13;5090795;28;24805;-76
2021/10/15 01:04:21;;;;;;;5.17;4.20;;;;;;;4.20;100.00;96216.88;5090714;28;24427;-75
2021/10/15 01:06:47;;;;;;;5.40;3.97;;;;;;;4.18;100.00;96215.22;5090315;28;24426;-76
2021/10/15 01:09:14;;;;;;;5.35;3.92;;;;;;;4.05;100.00;96207.09;5090431;28;24418;-76
2021/10/15 01:11:40;;;;;;;4.47;3.40;;;;;;;4.01;100.00;96208.06;5090884;28;24452;-75
2021/10/15 01:14:08;;;;;;;4.88;3.70;;;;;;;4.00;100.00;96202.06;5090687;28;24956;-76
2021/10/15 01:16:35;;;;;;;7.20;4.50;;;;;;;4.05;100.00;96202.81;5090145;28;24517;-75
2021/10/15 01:19:03;;;;;;;4.63;4.07;;;;;;;4.04;100.00;96207.94;5090675;28;24467;-76
2021/10/15 01:21:32;;;;;;;5.45;4.00;;;;;;;3.96;100.00;96197.94;5090336;28;24449;-76
2021/10/15 01:23:59;;;;;;;8.80;3.92;;;;;;;3.98;100.00;96193.63;5090354;28;24482;-76
2021/10/15 01:26:26;;;;;;;6.28;4.35;;;;;;;4.00;100.00;96193.56;5090337;28;24425;-76
2021/10/15 01:28:54;;;;;;;5.47;4.70;;;;;;;3.99;100.00;96192.72;5090530;28;24417;-76
2021/10/15 01:31:21;;;;;;;5.53;3.77;;;;;;;3.94;100.00;96181.78;5090420;28;24889;-76
2021/10/15 01:33:48;;;;;;;5.82;3.90;;;;;;;3.86;100.00;96179.44;5090331;28;24433;-76
2021/10/15 01:36:14;;;;;;;4.70;3.83;;;;;;;3.82;100.00;96179.56;5089896;28;24425;-76
2021/10/15 01:38:42;;;;;;;3.60;3.05;;;;;;;3.78;100.00;96176.28;5090556;28;24417;-75
2021/10/15 01:41:09;;;;;;;3.80;3.13;;;;;;;3.84;100.00;96180.38;5090575;28;24459;-76
2021/10/15 01:43:36;;;;;;;4.45;3.40;;;;;;;3.88;100.00;96171.72;5090827;28;24434;-76
2021/10/15 01:46:02;;;;;;;5.45;3.55;;;;;;;3.90;100.00;96172.50;5090950;28;24426;-76
2021/10/15 01:48:29;;;;;;;4.93;4.20;;;;;;;3.90;100.00;96166.56;5091772;28;24422;-77
2021/10/15 01:50:55;;;;;;;6.70;4.73;;;;;;;3.84;100.00;96172.69;5090208;28;24426;-76
2021/10/15 01:53:22;;;;;;;3.80;3.30;;;;;;;3.77;100.00;96164.34;5090245;28;24410;-76
2021/10/15 01:55:50;;;;;;;4.88;3.20;;;;;;;3.82;100.00;96161.63;5090185;28;24422;-76
2021/10/15 01:58:18;;;;;;;4.18;3.47;;;;;;;3.72;100.00;96155.13;5090500;28;24422;-76
2021/10/15 02:00:45;;;;;;;4.53;2.60;;;;;;;3.72;100.00;96157.69;5092525;28;24430;-76
2021/10/15 02:03:12;;;;;;;4.32;2.53;;;;;;;3.59;100.00;96149.50;5093947;28;24438;-76
2021/10/15 02:05:38;;;;;;;3.45;2.53;;;;;;;3.64;100.00;96148.50;5093747;28;24795;-76
2021/10/15 02:08:05;;;;;;;3.40;3.10;;;;;;;3.71;100.00;96145.75;5093850;28;25020;-76
2021/10/15 02:10:32;;;;;;;5.00;3.80;;;;;;;3.76;100.00;96141.34;5094078;28;24452;-76
2021/10/15 02:13:00;;;;;;;3.58;2.90;;;;;;;3.77;100.00;96138.72;5093939;28;24410;-76
2021/10/15 02:15:27;;;;;;;6.57;5.10;;;;;;;3.77;100.00;96138.72;5093494;28;24780;-76
2021/10/15 02:17:53;;;;;;;7.80;4.97;;;;;;;3.48;100.00;96143.84;5093544;28;25006;-76
2021/10/15 02:20:20;;;;;;;7.20;2.78;;;;;;;3.24;100.00;96125.78;5093764;28;24993;-76
2021/10/15 02:22:49;;;;;;;8.35;2.33;;;;;;;3.06;100.00;96131.41;5093693;28;25027;-76
2021/10/15 02:25:18;;;;;;;18.38;2.30;;;;;;;2.82;100.00;96128.63;5093397;28;24430;-76
2021/10/15 02:27:45;;;;;;;9.15;1.98;;;;;;;2.80;100.00;96127.81;5093562;28;24434;-76
2021/10/15 02:30:14;;;;;;;2.40;2.13;;;;;;;2.78;100.00;96128.72;5093694;28;24428;-76
2021/10/15 02:32:42;;;;;;;6.20;2.38;;;;;;;2.69;100.00;96116.19;5093480;28;24846;-76
2021/10/15 02:35:09;;;;;;;3.03;2.20;;;;;;;2.75;100.00;96110.94;5093404;28;24417;-76
2021/10/15 02:37:36;;;;;;;3.70;2.63;;;;;;;2.97;100.00;96109.47;5093321;28;24960;-76
2021/10/15 02:40:03;;;;;;;2.63;2.20;;;;;;;3.12;100.00;96106.47;5093615;28;24948;-76
2021/10/15 02:42:29;;;;;;;3.05;2.47;;;;;;;3.18;100.00;96105.47;5093250;28;24487;-76
2021/10/15 02:44:56;;;;;;;5.38;2.65;;;;;;;3.28;100.00;96104.31;5092901;28;24426;-76
2021/10/15 02:47:24;;;;;;;3.60;3.17;;;;;;;3.39;100.00;96102.28;5093593;28;24422;-75
2021/10/15 02:49:50;;;;;;;3.70;3.30;;;;;;;3.45;100.00;96093.59;5093729;28;24491;-76
2021/10/15 02:52:17;;;;;;;3.37;2.93;;;;;;;3.45;100.00;96091.03;5093396;28;24414;-76
2021/10/15 02:54:43;;;;;;;38.78;3.35;;;;;;;3.14;100.00;96101.31;5092868;28;24425;-76
2021/10/15 02:57:10;;;;;;;20.38;2.80;;;;;;;2.91;100.00;96101.97;5092963;28;24443;-76
2021/10/15 02:59:36;;;;;;;3.35;2.53;;;;;;;2.96;100.00;96097.53;5092892;28;24425;-77
2021/10/15 03:02:03;;;;;;;13.77;2.10;;;;;;;2.82;100.00;96092.00;5092965;28;24442;-77
2021/10/15 03:04:31;;;;;;;3.28;2.42;;;;;;;2.93;100.00;96095.09;5092815;28;24472;-76
2021/10/15 03:06:57;;;;;;;4.05;2.50;;;;;;;3.03;100.00;96083.69;5093233;28;24425;-76
2021/10/15 03:09:24;;;;;;;12.90;2.63;;;;;;;2.78;100.00;96088.69;5092879;28;24414;-77
2021/10/15 03:11:51;;;;;;;10.93;2.50;;;;;;;2.72;100.00;96083.72;5092402;28;25001;-76
2021/10/15 03:14:17;;;;;;;2.45;2.25;;;;;;;2.88;100.00;96087.53;5092575;28;24774;-76
2021/10/15 03:16:44;;;;;;;2.70;1.80;;;;;;;3.04;100.00;96087.09;5092453;28;24491;-76
2021/10/15 03:19:10;;;;;;;2.30;1.88;;;;;;;3.15;100.00;96079.94;5092740;28;24982;-76
2021/10/15 03:21:38;;;;;;;2.55;2.13;;;;;;;3.22;100.00;96088.28;5092753;28;24786;-76
2021/10/15 03:24:05;;;;;;;9.05;2.10;;;;;;;3.33;100.00;96076.84;5092546;28;24461;-76
2021/10/15 03:26:31;;;;;;;2.10;1.90;;;;;;;3.37;100.00;96085.28;5092226;28;24491;-76
2021/10/15 03:28:58;;;;;;;2.85;2.10;;;;;;;3.41;100.00;96089.44;5092410;28;24444;-77
2021/10/15 03:31:25;;;;;;;2.50;1.85;;;;;;;3.41;100.00;96084.31;5092379;28;24834;-76
2021/10/15 03:33:52;;;;;;;3.00;2.00;;;;;;;3.42;100.00;96088.56;5092730;28;24433;-77
2021/10/15 03:36:18;;;;;;;2.35;1.80;;;;;;;3.43;100.00;96085.09;5091940;28;24943;-77
2021/10/15 03:38:46;;;;;;;2.72;2.20;;;;;;;3.50;100.00;96080.66;5092405;28;25160;-76
2021/10/15 03:41:13;;;;;;;3.42;2.22;;;;;;;3.46;100.00;96073.94;5092053;28;24792;-76
2021/10/15 03:43:39;;;;;;;2.37;2.00;;;;;;;3.44;100.00;96073.97;5092094;28;24862;-76
2021/10/15 03:46:06;;;;;;;3.85;1.95;;;;;;;3.47;100.00;96073.88;5091910;28;24481;-76
2021/10/15 03:48:32;;;;;;;1.80;1.70;;;;;;;3.49;100.00;96077.25;5092770;28;24467;-76
2021/10/15 03:50:58;;;;;;;2.42;1.90;;;;;;;3.45;100.00;96075.69;5092098;28;24484;-76
2021/10/15 03:53:25;;;;;;;2.30;2.10;;;;;;;3.51;100.00;96074.63;5092062;28;24484;-77
2021/10/15 03:55:53;;;;;;;3.20;2.40;;;;;;;3.51;100.00;96074.63;5091462;28;24418;-76
2021/10/15 03:58:19;;;;;;;2.58;2.38;;;;;;;3.32;100.00;96072.63;5092125;28;24434;-76
2021/10/15 04:00:45;;;;;;;3.20;2.35;;;;;;;3.09;100.00;96073.28;5092020;28;24684;-76
2021/10/15 04:03:12;;;;;;;4.55;2.85;;;;;;;2.95;100.00;96065.16;5091696;28;24491;-76
2021/10/15 04:05:38;;;;;;;3.97;2.58;;;;;;;2.97;100.00;96068.53;5091828;28;24433;-77
2021/10/15 04:08:05;;;;;;;3.00;2.22;;;;;;;2.89;100.00;96073.00;5091770;28;24443;-78
2021/10/15 04:10:32;;;;;;;2.70;2.50;;;;;;;2.75;100.00;96067.47;5091711;28;24471;-76
2021/10/15 04:12:59;;;;;;;2.60;2.40;;;;;;;2.83;100.00;96068.06;5091770;28;24414;-78
2021/10/15 04:15:26;;;;;;;4.10;2.17;;;;;;;2.97;100.00;96063.41;5091620;28;25029;-77
2021/10/15 04:17:52;;;;;;;2.38;2.17;;;;;;;2.86;99.83;96062.88;5091496;28;24426;-77
2021/10/15 04:20:19;;;;;;;2.58;2.38;;;;;;;2.64;100.00;96054.97;5091679;28;24479;-77
2021/10/15 04:22:45;;;;;;;3.22;2.70;;;;;;;2.60;100.00;96058.47;5090945;28;24442;-77
2021/10/15 04:25:12;;;;;;;3.92;2.47;;;;;;;2.52;100.00;96047.59;5091114;28;24435;-76
2021/10/15 04:27:38;;;;;;;3.10;2.70;;;;;;;2.42;100.00;96052.97;5091715;28;24426;-77
2021/10/15 04:30:07;;;;;;;4.32;3.00;;;;;;;2.46;100.00;96050.34;5091649;28;24426;-77
2021/10/15 04:32:33;;;;;;;2.97;2.67;;;;;;;2.50;100.00;96052.75;5091382;28;24410;-76
2021/10/15 04:35:00;;;;;;;3.63;2.72;;;;;;;2.53;100.00;96047.56;5091122;28;24418;-78
2021/10/15 04:37:26;;;;;;;3.13;2.55;;;;;;;2.54;100.00;96044.13;5091396;28;24414;-76
2021/10/15 04:39:53;;;;;;;3.40;2.70;;;;;;;2.60;100.00;96045.69;5091379;28;25016;-78
2021/10/15 04:42:20;;;;;;;3.53;2.77;;;;;;;2.58;100.00;96042.31;5091294;28;24429;-78
2021/10/15 04:44:46;;;;;;;5.05;3.00;;;;;;;2.48;100.00;96036.59;5091066;28;24869;-76
2021/10/15 04:47:14;;;;;;;3.72;3.10;;;;;;;2.41;100.00;96037.66;5092402;28;24426;-78
2021/10/15 04:49:40;;;;;;;4.07;3.22;;;;;;;2.48;100.00;96034.06;5094270;28;24426;-77
2021/10/15 04:52:07;;;;;;;3.43;3.10;;;;;;;2.58;100.00;96040.59;5094171;28;24951;-77
2021/10/15 04:54:33;;;;;;;3.27;2.93;;;;;;;2.64;100.00;96042.16;5092995;28;24965;-77
2021/10/15 04:57:00;;;;;;;3.80;2.65;;;;;;;2.66;100.00;96032.72;5091661;28;24467;-77
2021/10/15 04:59:26;;;;;;;5.28;2.90;;;;;;;2.70;100.00;96028.38;5091379;28;24471;-77
2021/10/15 05:01:53;;;;;;;4.35;2.75;;;;;;;2.73;100.00;96033.41;5091154;28;24522;-77
2021/10/15 05:04:21;;;;;;;2.75;2.42;;;;;;;2.66;100.00;96022.50;5091008;28;24549;-77
2021/10/15 05:06:47;;;;;;;3.45;2.83;;;;;;;2.69;100.00;96024.97;5090861;28;24960;-76
2021/10/15 05:09:26;;;;;;;4.78;3.15;;;;;;;2.78;100.00;96028.97;5091024;28;24785;-76
2021/10/15 05:11:54;;;;;;;3.33;2.85;;;;;;;2.84;100.00;96026.25;5091131;28;24422;-77
2021/10/15 05:14:20;;;;;;;3.15;2.50;;;;;;;2.74;100.00;96024.84;5090923;28;24425;-77
2021/10/15 05:16:47;;;;;;;17.67;2.23;;;;;;;2.67;100.00;96021.63;5090489;28;24466;-77
2021/10/15 05:19:13;;;;;;;2.37;2.17;;;;;;;2.66;100.00;96018.22;5091075;28;24508;-76
2021/10/15 05:21:41;;;;;;;2.97;2.25;;;;;;;2.75;100.00;96023.97;5090929;28;24480;-76
2021/10/15 05:24:07;;;;;;;3.05;1.98;;;;;;;2.80;100.00;96020.38;5090838;28;24449;-76
2021/10/15 05:26:34;;;;;;;2.20;1.98;;;;;;;2.79;100.00;96023.00;5090655;28;24487;-76
2021/10/15 05:29:00;;;;;;;2.20;2.00;;;;;;;2.78;100.00;96016.19;5091059;28;24791;-77
2021/10/15 05:31:27;;;;;;;11.35;1.90;;;;;;;2.56;100.00;96021.06;5091173;28;24475;-76
2021/10/15 05:33:53;;;;;;;37.65;3.10;;;;;;;2.52;100.00;96019.47;5091747;28;24830;-77
2021/10/15 05:36:20;;;;;;;16.33;2.60;;;;;;;2.32;100.00;96022.56;5094756;28;24503;-77
2021/10/15 05:38:47;;;;;;;89.45;4.15;;;;;;;2.03;100.00;96021.59;5094777;28;24436;-77
2021/10/15 05:41:14;;;;;;;77.93;4.72;;;;;;;1.94;100.00;96032.91;5094831;28;24425;-77
2021/10/15 05:43:41;;;;;;;12.50;3.13;;;;;;;1.97;100.00;96032.00;5094935;28;24526;-77
2021/10/15 05:46:07;;;;;;;2.88;2.10;;;;;;;2.18;100.00;96028.88;5094531;28;24425;-77
2021/10/15 05:48:34;;;;;;;4.05;2.05;;;;;;;2.22;100.00;96026.25;5094968;28;25004;-77
2021/10/15 05:51:00;;;;;;;4.10;1.67;;;;;;;2.27;100.00;96029.53;5094934;28;24433;-77
2021/10/15 05:53:27;;;;;;;2.28;1.83;;;;;;;2.43;100.00;96030.78;5095020;28;24414;-76
2021/10/15 05:56:08;;;;;;;2.40;2.20;;;;;;;2.50;100.00;96031.47;5094242;28;24943;-77
2021/10/15 05:58:50;;;;;;;3.47;2.28;;;;;;;2.51;100.00;96038.25;5094867;28;24433;-76
2021/10/15 06:01:16;;;;;;;2.13;1.92;;;;;;;2.60;100.00;96032.91;5094764;28;24418;-77
2021/10/15 06:03:46;;;;;;;2.60;2.20;;;;;;;2.65;100.00;96029.31;5094310;28;25169;-71
2021/10/15 06:14:21;;;;;;;3.07;2.17;;;;;;;2.94;100.00;96030.25;5070842;28;24426;-76
2021/10/15 06:16:49;;;;;;;3.63;2.78;;;;;;;2.92;100.00;96025.16;5093769;28;24862;-76
2021/10/15 06:19:18;;;;;;;2.58;2.20;;;;;;;3.01;100.00;96033.47;5094478;28;24421;-76
2021/10/15 06:21:45;;;;;;;2.70;2.22;;;;;;;2.95;100.00;96028.50;5093788;28;24430;-76
2021/10/15 06:24:11;;;;;;;3.00;2.30;;;;;;;2.94;100.00;96037.09;5094291;28;24446;-75
2021/10/15 06:26:39;;;;;;;5.18;2.45;;;;;;;3.02;100.00;96035.13;5093860;28;24442;-76
2021/10/15 06:29:05;;;;;;;2.67;2.15;;;;;;;3.05;100.00;96030.78;5094003;28;24418;-76
2021/10/15 06:31:32;;;;;;;4.45;2.72;;;;;;;3.06;100.00;96036.72;5093574;28;24943;-76
2021/10/15 06:33:59;;;;;;;2.10;1.90;;;;;;;3.08;100.00;96034.97;5093957;28;24464;-76
2021/10/15 06:36:25;;;;;;;5.45;2.13;;;;;;;3.07;100.00;96039.22;5093620;28;24433;-76
2021/10/15 06:38:52;;;;;;;2.50;2.20;;;;;;;3.11;100.00;96038.25;5093944;28;24430;-76
2021/10/15 06:41:19;;;;;;;2.35;2.10;;;;;;;3.18;100.00;96035.53;5094837;28;24438;-76
2021/10/15 06:43:47;;;;;;;2.30;2.10;;;;;;;3.32;100.00;96033.38;5093684;28;25100;-76
2021/10/15 06:46:14;;;;;;;2.40;1.97;;;;;;;3.45;100.00;96031.28;5092864;28;24429;-76
2021/10/15 06:48:40;;;;;;;2.17;1.90;;;;;;;3.59;100.00;96037.66;5093800;28;24427;-77
2021/10/15 06:51:07;;;;;;;2.17;1.98;;;;;;;3.60;100.00;96039.34;5093820;28;24418;-75
2021/10/15 06:53:33;;;;;;;2.70;2.15;;;;;;;3.62;100.00;96041.84;5093791;28;24479;-76
2021/10/15 06:56:00;;;;;;;3.10;2.25;;;;;;;3.76;100.00;96055.06;5093377;28;24425;-76
2021/10/15 06:58:26;;;;;;;2.20;2.00;;;;;;;3.87;100.00;96041.94;5094014;28;24438;-76
2021/10/15 07:00:54;;;;;;;4.22;2.47;;;;;;;3.92;100.00;96047.72;5093460;28;24453;-77
2021/10/15 07:03:21;;;;;;;4.03;2.40;;;;;;;4.04;100.00;96049.03;5093230;28;24653;-77
2021/10/15 07:05:47;;;;;;;4.82;1.90;;;;;;;4.19;100.00;96042.59;5092972;28;24475;-77
2021/10/15 07:08:14;;;;;;;5.60;2.90;;;;;;;4.25;100.00;96048.34;5093241;28;24430;-76
2021/10/15 07:10:41;;;;;;;5.35;3.28;;;;;;;4.37;100.00;96049.66;5093238;28;24430;-77
2021/10/15 07:13:07;;;;;;;5.80;3.10;;;;;;;4.36;100.00;96051.38;5093105;28;24414;-76
2021/10/15 07:15:34;;;;;;;5.28;3.33;;;;;;;4.36;100.00;96055.69;5092820;28;24940;-76
2021/10/15 07:18:03;;;;;;;4.55;2.80;;;;;;;4.53;100.00;96044.88;5092774;28;24438;-75
2021/10/15 07:20:30;;;;;;;4.80;2.47;;;;;;;4.65;100.00;96051.28;5092990;28;24430;-76
2021/10/15 07:22:57;;;;;;;3.90;2.42;;;;;;;5.02;100.00;96046.50;5093036;28;24479;-76
2021/10/15 07:25:23;;;;;;;5.55;2.25;;;;;;;4.98;100.00;96044.94;5092456;28;24503;-75
2021/10/15 07:27:50;;;;;;;3.33;2.10;;;;;;;4.89;100.00;96047.84;5092683;28;24854;-75
2021/10/15 07:30:17;;;;;;;6.05;1.98;;;;;;;4.82;100.00;96044.69;5092597;28;24414;-75
2021/10/15 07:32:44;;;;;;;5.72;2.03;;;;;;;4.77;100.00;96049.13;5092442;28;24986;-76
2021/10/15 07:35:12;;;;;;;3.83;2.10;;;;;;;4.89;100.00;96041.88;5092372;28;24425;-76
2021/10/15 07:37:39;;;;;;;3.97;2.20;;;;;;;4.98;100.00;96050.09;5092402;28;24977;-76
2021/10/15 07:40:08;;;;;;;2.75;1.75;;;;;;;5.07;100.00;96054.88;5092762;28;24422;-76
2021/10/15 07:42:34;;;;;;;2.30;1.60;;;;;;;5.17;100.00;96051.97;5100697;28;24445;-76
2021/10/15 07:45:01;;;;;;;4.05;2.17;;;;;;;5.43;100.00;96054.41;5111230;28;24502;-76
2021/10/15 07:47:27;;;;;;;4.63;2.05;;;;;;;5.50;100.00;96055.84;5112628;28;24445;-76
2021/10/15 07:49:54;;;;;;;2.80;1.70;;;;;;;5.92;100.00;96062.81;5112411;28;24455;-76
2021/10/15 07:52:22;;;;;;;2.28;1.85;;;;;;;6.14;100.00;96055.06;5112691;28;24437;-76
2021/10/15 07:54:48;;;;;;;3.30;1.80;;;;;;;6.51;100.00;96056.13;5113053;27;24449;-77
2021/10/15 07:57:15;;;;;;;2.92;2.00;;;;;;;6.26;100.00;96051.97;5108708;28;24792;-77
2021/10/15 07:59:43;;;;;;;7.78;1.88;;;;;;;6.21;100.00;96063.38;5094194;28;24410;-77
2021/10/15 08:02:09;;;;;;;2.50;1.92;;;;;;;6.49;100.00;96056.19;5095398;28;24433;-78
2021/10/15 08:04:36;;;;;;;5.28;2.13;;;;;;;6.59;100.00;96055.78;5092400;28;24446;-77
2021/10/15 08:07:04;;;;;;;3.05;2.03;;;;;;;7.06;100.00;96058.06;5092113;28;24495;-77
2021/10/15 08:09:31;;;;;;;2.50;1.90;;;;;;;7.42;100.00;96055.56;5092172;28;24425;-76
2021/10/15 08:11:58;;;;;;;5.13;2.25;;;;;;;7.38;98.71;96060.03;5091814;28;24974;-77
2021/10/15 08:14:25;;;;;;;3.60;2.00;;;;;;;7.00;100.00;96059.97;5091672;28;24435;-77
2021/10/15 08:16:52;;;;;;;3.50;1.80;;;;;;;6.99;100.00;96050.59;5091544;28;24434;-77
2021/10/15 08:19:19;;;;;;;3.20;1.80;;;;;;;7.25;100.00;96052.00;5091747;28;24430;-76
2021/10/15 08:21:45;;;;;;;2.97;1.92;;;;;;;7.08;100.00;96056.22;5091795;28;24792;-77
2021/10/15 08:24:14;;;;;;;3.50;2.30;;;;;;;6.95;100.00;96054.22;5091717;28;24442;-77
2021/10/15 08:26:42;;;;;;;4.50;2.53;;;;;;;7.12;100.00;96058.63;5091271;28;24440;-77
2021/10/15 08:29:08;;;;;;;2.97;2.10;;;;;;;7.24;100.00;96064.97;5091420;28;24444;-77
2021/10/15 08:31:35;;;;;;;2.53;1.70;;;;;;;7.50;100.00;96062.03;5091591;28;24430;-77
2021/10/15 08:34:06;;;;;;;2.00;1.80;;;;;;;7.51;100.00;96058.53;5091360;28;25067;-76
2021/10/15 08:36:33;;;;;;;4.27;2.17;;;;;;;7.57;100.00;96056.59;5091093;28;24434;-76
2021/10/15 08:38:59;;;;;;;2.80;1.87;;;;;;;7.62;100.00;96060.63;5091279;28;24468;-76
2021/10/15 08:41:26;;;;;;;5.35;2.05;;;;;;;7.52;100.00;96061.94;5091762;28;24418;-76
2021/10/15 08:43:57;;;;;;;1.75;1.60;;;;;;;7.60;100.00;96065.03;5091547;28;24495;-76
2021/10/15 08:46:23;;;;;;;2.72;1.88;;;;;;;7.75;100.00;96066.06;5091276;28;20900;-77
2021/10/15 08:48:50;;;;;;;2.92;2.03;;;;;;;7.93;100.00;96072.06;5091391;28;24441;-76
2021/10/15 08:51:19;;;;;;;4.43;1.77;;;;;;;7.83;100.00;96070.84;5091656;28;20801;-76
2021/10/15 08:53:47;;;;;;;2.05;1.75;;;;;;;8.04;100.00;96068.97;5091232;28;20858;-76
2021/10/15 08:56:17;;;;;;;3.10;1.60;;;;;;;8.47;100.00;96070.34;5090924;28;21285;-77
2021/10/15 08:58:44;;;;;;;3.05;1.83;;;;;;;8.53;99.43;96071.78;5091080;28;24429;-76
2021/10/15 09:01:12;;;;;;;3.47;1.92;;;;;;;8.80;97.62;96069.56;5091250;28;20763;-76
2021/10/15 09:03:38;;;;;;;3.00;1.95;;;;;;;8.99;96.93;96069.47;5090636;28;21297;-76
2021/10/15 09:06:07;;;;;;;3.67;2.05;;;;;;;9.25;97.34;96068.94;5096352;28;24421;-76
2021/10/15 09:08:45;;;;;;;2.03;1.67;;;;;;;9.51;94.96;96064.97;5110790;28;21336;-76
2021/10/15 09:11:27;;;;;;;2.63;1.60;;;;;;;9.45;92.62;96062.69;5111485;28;20847;-76
2021/10/15 09:14:13;;;;;;;4.88;1.83;;;;;;;9.39;94.75;96066.44;5111784;28;20622;-76
2021/10/15 09:16:59;;;;;;;3.83;1.88;;;;;;;9.59;93.52;96060.19;5110692;28;20700;-76
2021/10/15 09:19:30;;;;;;;2.93;1.93;;;;;;;9.61;92.31;96062.72;5110576;28;24420;-77
2021/10/15 09:22:19;;;;;;;2.58;1.58;;;;;;;9.82;90.93;96053.75;5111467;28;24417;-77
2021/10/15 09:24:50;;;;;;;1.90;1.63;;;;;;;10.03;91.02;96058.69;5110835;28;20715;-77
2021/10/15 09:27:20;;;;;;;2.83;1.90;;;;;;;10.31;90.54;96048.47;5111220;28;24482;-76
2021/10/15 09:29:49;;;;;;;1.90;1.70;;;;;;;10.63;88.01;96046.59;5111376;28;24473;-77
2021/10/15 09:32:18;;;;;;;2.95;1.90;;;;;;;10.70;88.02;96044.47;5111000;28;24413;-77
2021/10/15 09:34:45;;;;;;;2.53;1.95;;;;;;;10.74;86.72;96047.72;5111071;28;24421;-77
2021/10/15 09:37:14;;;;;;;2.80;2.10;;;;;;;10.99;85.98;96042.75;5110990;28;24962;-76
2021/10/15 09:39:40;;;;;;;3.05;1.98;;;;;;;11.43;85.01;96035.78;5111141;28;24429;-77
2021/10/15 09:42:24;;;;;;;2.35;1.80;;;;;;;11.81;83.61;96047.19;5111077;28;24429;-76
2021/10/15 09:44:52;;;;;;;2.55;1.70;;;;;;;11.70;83.42;96046.19;5110719;28;24536;-76
2021/10/15 09:47:23;;;;;;;3.60;1.70;;;;;;;11.70;81.53;96052.22;5110733;28;24482;-77
2021/10/15 09:49:52;;;;;;;2.65;2.08;;;;;;;11.90;80.65;96052.75;5111067;28;24520;-77
2021/10/15 09:52:32;;;;;;;2.83;1.90;;;;;;;12.06;79.25;96053.44;5111129;28;24455;-77
2021/10/15 09:55:01;;;;;;;3.40;2.37;;;;;;;11.91;79.58;96060.47;5110588;28;24426;-77
2021/10/15 09:57:29;;;;;;;3.88;2.30;;;;;;;12.11;78.80;96060.00;5110885;28;24444;-77
2021/10/15 09:59:56;;;;;;;2.55;1.55;;;;;;;12.55;76.09;96053.69;5111009;28;24421;-77
2021/10/15 10:02:24;;;;;;;1.77;1.60;;;;;;;12.80;77.12;96060.69;5110952;28;24478;-77
2021/10/15 10:04:53;;;;;;;5.63;1.90;;;;;;;12.97;75.38;96048.31;5110567;28;24445;-77
2021/10/15 10:07:20;;;;;;;4.20;1.92;;;;;;;13.16;74.14;96053.91;5110690;28;24424;-77
2021/10/15 10:09:46;;;;;;;4.65;2.10;;;;;;;13.00;74.07;96045.50;5110752;28;24834;-77
2021/10/15 10:12:13;;;;;;;4.63;2.17;;;;;;;13.07;75.85;96044.97;5110876;28;24790;-77
2021/10/15 10:14:39;;;;;;;3.47;1.95;;;;;;;13.50;75.75;96036.84;5110595;28;24428;-77
2021/10/15 10:17:08;;;;;;;4.55;2.25;;;;;;;13.45;74.66;96038.09;5110232;28;25080;-77
2021/10/15 10:19:38;;;;;;;3.78;2.00;;;;;;;13.66;72.22;96036.59;5110603;28;24984;-77
2021/10/15 10:22:04;;;;;;;5.00;1.90;;;;;;;13.43;72.54;96034.78;5113178;28;24425;-77
2021/10/15 10:24:34;;;;;;;4.43;2.13;;;;;;;13.37;73.00;96028.22;5114404;28;24441;-77
2021/10/15 10:27:01;;;;;;;4.43;2.10;;;;;;;13.07;72.63;96024.19;5115017;27;24433;-77
2021/10/15 10:29:29;;;;;;;5.90;2.33;;;;;;;12.94;73.35;96033.78;5115309;28;24429;-76
2021/10/15 10:32:13;;;;;;;3.55;1.70;;;;;;;13.08;72.90;96028.44;5114147;27;24505;-76
2021/10/15 10:34:42;;;;;;;2.50;1.60;;;;;;;12.89;72.25;96030.63;5114059;28;24970;-76
2021/10/15 10:37:11;;;;;;;5.13;2.05;;;;;;;12.83;70.68;96026.69;5113954;28;24478;-76
2021/10/15 10:39:38;;;;;;;2.88;1.77;;;;;;;12.77;71.67;96019.31;5114267;28;24471;-76
2021/10/15 10:42:07;;;;;;;3.95;1.40;;;;;;;12.88;71.33;96022.94;5114024;28;24524;-77
2021/10/15 10:44:35;;;;;;;3.33;1.70;;;;;;;12.88;72.99;96020.34;5113734;28;24460;-77
2021/10/15 10:47:14;;;;;;;3.00;1.83;;;;;;;12.93;71.73;96020.84;5113891;28;24465;-77
2021/10/15 10:50:03;;;;;;;2.65;1.50;;;;;;;13.25;70.84;96032.53;5114047;28;24503;-77
2021/10/15 10:52:31;;;;;;;4.80;1.65;;;;;;;13.08;69.64;96023.22;5113488;28;24425;-77
2021/10/15 10:54:57;;;;;;;4.18;1.73;;;;;;;12.94;69.71;96025.13;5114131;28;24424;-77
2021/10/15 10:57:27;;;;;;;2.85;1.75;;;;;;;13.35;71.78;96026.66;5115006;28;24430;-77
2021/10/15 11:00:12;;;;;;;3.17;1.77;;;;;;;13.64;69.91;96024.63;5114693;28;24425;-77
2021/10/15 11:02:45;;;;;;;3.78;1.50;;;;;;;14.43;70.84;96020.63;5115118;28;24429;-77
2021/10/15 11:05:13;;;;;;;5.68;1.60;;;;;;;14.12;69.33;96016.84;5115388;28;24457;-77
2021/10/15 11:07:40;;;;;;;3.22;1.67;;;;;;;14.53;66.69;96011.19;5116838;28;24478;-77
2021/10/15 11:10:21;;;;;;;1.80;1.40;;;;;;;14.46;67.41;96015.16;5116578;28;24444;-77
2021/10/15 11:13:00;;;;;;;2.97;1.60;;;;;;;13.83;67.04;96027.59;5115270;28;24409;-77
2021/10/15 11:15:31;;;;;;;3.38;1.50;;;;;;;13.95;71.26;96025.88;5114064;28;24424;-78
2021/10/15 11:17:58;;;;;;;3.10;1.40;;;;;;;14.00;70.47;96019.38;5116923;27;24436;-78
2021/10/15 11:20:28;;;;;;;2.22;1.70;;;;;;;14.29;70.54;96009.44;5112249;27;24455;-78
2021/10/15 11:22:57;;;;;;;2.83;1.38;;;;;;;14.47;68.36;96007.25;5116778;28;24426;-78
2021/10/15 11:25:25;;;;;;;2.03;1.30;;;;;;;14.14;70.83;96010.56;5115018;28;24442;-76
2021/10/15 11:27:54;;;;;;;6.13;1.70;;;;;;;14.59;69.46;96008.16;5112677;28;24437;-75
2021/10/15 11:30:21;;;;;;;2.42;1.55;;;;;;;14.66;68.87;95998.09;5113218;28;24417;-75
2021/10/15 11:32:49;;;;;;;2.42;1.73;;;;;;;14.43;68.04;96000.63;5112795;27;24406;-75
2021/10/15 11:35:18;;;;;;;2.00;1.52;;;;;;;14.08;68.49;96002.38;5113183;28;24428;-77
2021/10/15 11:37:52;;;;;;;1.60;1.20;;;;;;;14.52;72.45;95999.94;5112992;28;24780;-76
2021/10/15 11:40:23;;;;;;;2.78;1.50;;;;;;;14.28;68.78;96002.59;5112866;28;24433;-77
2021/10/15 11:42:50;;;;;;;1.90;1.52;;;;;;;14.20;68.90;95999.72;5113472;28;24425;-76
2021/10/15 11:45:39;;;;;;;1.85;1.50;;;;;;;14.21;68.45;95997.94;5112667;28;24537;-76